weather.gov     
National Weather Service

Terminal Aerodrome Forecast
NWS Homepage
This page is being discontinued on March 12, 2014.
The same data is available at this site. Please update your bookmarks.
Thank you, and we apologize for the inconvenience.
Please send an email to SR-SRH.Webmaster@noaa.gov with any concerns.


Current Version
Previous Version:    01  02  03  04  05  06  07  08  09  10  11  12  13  14  15  16  17  18  19  20  21  22  23  24  25  26  27  28  29  
[Printable]
399
FTUS46 KMFR 241700
TAFRBG
TAF
KRBG 241720Z 2418/2518 VRB03KT P6SM -SHRA SCT015 OVC050
     FM242000 24008KT P6SM -SHRA SCT020 BKN050
     FM250200 VRB03KT P6SM VCSH SCT020 OVC035
     FM250800 00000KT P6SM -SHRA OVC020=


U.S. Dept. of Commerce
NOAA National Weather Service
1325 East West Highway
Silver Spring, MD 20910
E-mail: w-nws.webmaster@noaa.gov
Page last modified: May 16, 2007
NATIONAL WEATHER SERVICE: for Safety, for Work, for Fun - FOR LIFE